• Join FlightAware (Why Join?)
  • Login
  • US Flag 
11:45AM EDT


 

Airport Tracker/Info


-or-


 

Live Flight TrackerFlight Track Log ✈ FLG3776 ✈ 26-Apr-2013 ✈ KMSP - KAZO

Flight Track Log - Related Links

Times and Time Zones

All times are in EDT time to prevent confusion due to time zone crossing. See the FLG3776 flight status page for this flight to view local times or setup timezone preferences in your user account.

Time Position Orientation Groundspeed Altitude Reporting Facility
EDT Latitude Longitude Course Direction KTS MPH feet Rate Location/Type
08:55PM 44.9000 -93.2333 117° Southeast 157 181 1,800  Level Minneapolis TRACON
08:56PM 44.9339 -93.2344 359° North 178 205 2,600 1,680 Climbing Minneapolis Center
08:57PM 44.9761 -93.1892 37° Northeast 235 270 4,800 2,460 Climbing Minneapolis Center
08:58PM 44.7483 -92.7766 110° East  Level Estimated
08:58PM 44.9903 -93.0817 79° East 276 318 7,700  Level Minneapolis Center
08:59PM 44.7033 -92.6286 118° Southeast  Level Estimated
08:59PM 44.9639 -92.9561 107° East 301 346 10,500  Level Minneapolis Center
09:00PM 44.6392 -92.4955 124° Southeast  Level FlightAware Approximate
09:00PM 44.9058 -92.8517 128° Southeast 335 386 11,500  Level Minneapolis Center
09:01PM 44.5991 -92.3350 117° Southeast  Level FlightAware Approximate
09:01PM 44.8417 -92.7297 127° Southeast 381 438 12,900  Level Minneapolis Center
09:02PM 44.7742 -92.6067 128° Southeast 394 453 14,400 1,440 Climbing Minneapolis Center
09:03PM 44.7050 -92.4808 128° Southeast 405 466 15,900 1,440 Climbing Minneapolis Center
09:04PM 44.6361 -92.3547 127° Southeast 407 468 17,400 1,380 Climbing Minneapolis Center
09:05PM 44.5667 -92.2308 128° Southeast 405 466 18,800 1,440 Climbing Minneapolis Center
09:07PM 44.4867 -92.0781 126° Southeast 405 466 20,400 1,200 Climbing Minneapolis Center
09:08PM 44.4186 -91.9464 126° Southeast 414 476 21,400 960 Climbing Minneapolis Center
09:09PM 44.3525 -91.8092 124° Southeast 422 486 22,400 960 Climbing Minneapolis Center
09:10PM 44.2981 -91.6625 117° Southeast 426 490 23,400 960 Climbing Minneapolis Center
09:11PM 44.2428 -91.5156 118° Southeast 429 494 24,400 1,020 Climbing Minneapolis Center
09:12PM 44.1744 -91.3406 119° Southeast 429 494 25,600 1,020 Climbing Minneapolis Center
09:13PM 44.1231 -91.2056 118° Southeast 429 494 26,600 660 Climbing Minneapolis Center
09:14PM 44.0667 -91.0608 118° Southeast 428 493 27,000 180 Climbing Minneapolis Center
09:15PM 44.0075 -90.9108 119° Southeast 439 505 27,000  Level Minneapolis Center
09:16PM 43.9378 -90.7233 117° Southeast 455 524 27,000  Level Minneapolis Center
09:17PM 43.8881 -90.5475 111° Southeast 466 536 27,000  Level Minneapolis Center
09:18PM 43.8392 -90.3806 112° Southeast 466 536 27,000  Level Minneapolis Center
09:19PM 43.7892 -90.2131 112° Southeast 470 541 27,000  Level Minneapolis Center
09:20PM 43.7386 -90.0500 113° Southeast 464 534 27,000  Level Minneapolis Center
09:21PM 43.6903 -89.8853 112° Southeast 462 532 27,000  Level Minneapolis Center
09:22PM 43.6333 -89.6950 112° Southeast 461 531 27,000  Level Minneapolis Center
09:23PM 43.5844 -89.5325 113° Southeast 460 529 27,000  Level Minneapolis Center
09:24PM 43.5347 -89.3706 113° Southeast 459 528 27,000  Level Minneapolis Center
09:25PM 43.4839 -89.2092 113° Southeast 460 529 27,000  Level Minneapolis Center
09:26PM 43.4253 -89.0200 113° Southeast 463 533 27,000  Level Chicago Center
09:27PM 43.3739 -88.8569 113° Southeast 467 537 27,000  Level Chicago Center
09:28PM 43.3222 -88.6964 114° Southeast 465 535 27,000  Level Chicago Center
09:29PM 43.2708 -88.5328 113° Southeast 473 544 27,000  Level Chicago Center
09:30PM 43.2094 -88.3403 114° Southeast 477 549 27,000  Level Chicago Center
09:31PM 43.1569 -88.1744 113° Southeast 478 550 27,000  Level Chicago Center
09:32PM 43.1042 -88.0089 114° Southeast 477 549 27,000 -420 Level Chicago Center
09:33PM 43.0497 -87.8417 114° Southeast 481 554 26,200 -900 Descending Chicago Center
09:34PM 42.9958 -87.6747 114° Southeast 479 551 25,200 -1,020 Descending Chicago Center
09:35PM 42.9417 -87.5119 114° Southeast 474 545 24,200 -1,080 Descending Chicago Center
09:37PM 42.8789 -87.3239 114° Southeast 475 547 23,100 -1,080 Descending Chicago Center
09:38PM 42.8253 -87.1617 114° Southeast 472 543 22,100 -1,020 Descending Chicago Center
09:39PM 42.7719 -87.0014 114° Southeast 468 539 21,100 -540 Descending Chicago Center
09:40PM 42.7183 -86.8442 115° Southeast 463 533 21,000 -360 Descending Chicago Center
09:41PM 42.6669 -86.6908 114° Southeast 451 519 20,400 -1,020 Descending Chicago Center
09:42PM 42.6133 -86.5358 115° Southeast 455 524 18,900 -2,100 Descending Chicago Center
09:43PM 42.5525 -86.3594 115° Southeast 439 505 16,200 -2,700 Descending Chicago Center
09:44PM 42.5067 -86.2239 115° Southeast 406 467 13,400 -2,520 Descending Chicago Center
09:45PM 42.4636 -86.0989 115° Southeast 377 434 11,100 -1,200 Descending Chicago Center
09:46PM 42.4214 -85.9981 120° Southeast 319 367 11,000 -840 Descending Chicago Center
09:47PM 42.3800 -85.8994 120° Southeast 305 351 9,400 -2,160 Descending Chicago Center
09:48PM 42.3486 -85.8028 114° Southeast 291 335 6,600 -2,040 Descending Chicago Center
09:49PM 42.3344 -85.7056 101° East 273 314 5,300 -1,800 Descending Chicago Center
09:50PM 42.3253 -85.6181 98° East 212 244 3,000 -2,280 Descending Chicago Center